sensor_id;sensor_type;location;lat;lon;timestamp;P1;durP1;ratioP1;P2;durP2;ratioP2
62435;SDS011;48480;50.252;18.848;2023-11-19T00:01:29;50.00;;;22.60;;
62435;SDS011;48480;50.252;18.848;2023-11-19T00:04:13;50.40;;;23.10;;
62435;SDS011;48480;50.252;18.848;2023-11-19T00:06:57;38.50;;;20.90;;
62435;SDS011;48480;50.252;18.848;2023-11-19T00:09:46;43.10;;;21.50;;
62435;SDS011;48480;50.252;18.848;2023-11-19T00:12:32;42.40;;;20.80;;
62435;SDS011;48480;50.252;18.848;2023-11-19T00:15:16;30.60;;;17.40;;
62435;SDS011;48480;50.252;18.848;2023-11-19T00:18:01;28.60;;;15.90;;
62435;SDS011;48480;50.252;18.848;2023-11-19T00:20:48;28.70;;;14.60;;
62435;SDS011;48480;50.252;18.848;2023-11-19T00:23:32;29.20;;;14.30;;
62435;SDS011;48480;50.252;18.848;2023-11-19T00:26:16;26.40;;;14.40;;
62435;SDS011;48480;50.252;18.848;2023-11-19T00:29:00;29.70;;;15.60;;
62435;SDS011;48480;50.252;18.848;2023-11-19T00:31:44;27.60;;;15.00;;
62435;SDS011;48480;50.252;18.848;2023-11-19T00:34:28;26.50;;;15.30;;
62435;SDS011;48480;50.252;18.848;2023-11-19T00:37:12;30.70;;;16.50;;
62435;SDS011;48480;50.252;18.848;2023-11-19T00:39:56;27.80;;;16.40;;
62435;SDS011;48480;50.252;18.848;2023-11-19T00:42:40;32.70;;;16.80;;
62435;SDS011;48480;50.252;18.848;2023-11-19T00:45:24;30.40;;;17.50;;
62435;SDS011;48480;50.252;18.848;2023-11-19T00:48:08;27.40;;;15.20;;
62435;SDS011;48480;50.252;18.848;2023-11-19T00:50:51;32.60;;;17.50;;
62435;SDS011;48480;50.252;18.848;2023-11-19T00:53:36;34.80;;;17.50;;
62435;SDS011;48480;50.252;18.848;2023-11-19T00:56:20;31.10;;;17.20;;
62435;SDS011;48480;50.252;18.848;2023-11-19T00:59:04;36.10;;;19.30;;
62435;SDS011;48480;50.252;18.848;2023-11-19T01:01:48;41.30;;;20.40;;
62435;SDS011;48480;50.252;18.848;2023-11-19T01:04:35;45.20;;;24.60;;
62435;SDS011;48480;50.252;18.848;2023-11-19T01:07:20;44.50;;;25.10;;
62435;SDS011;48480;50.252;18.848;2023-11-19T01:10:05;41.70;;;22.80;;
62435;SDS011;48480;50.252;18.848;2023-11-19T01:12:50;39.20;;;23.10;;
62435;SDS011;48480;50.252;18.848;2023-11-19T01:15:35;49.20;;;24.90;;
62435;SDS011;48480;50.252;18.848;2023-11-19T01:18:19;46.10;;;23.30;;
62435;SDS011;48480;50.252;18.848;2023-11-19T01:21:04;41.80;;;20.80;;
62435;SDS011;48480;50.252;18.848;2023-11-19T01:23:49;39.60;;;20.90;;
62435;SDS011;48480;50.252;18.848;2023-11-19T01:26:33;38.90;;;20.80;;
62435;SDS011;48480;50.252;18.848;2023-11-19T01:29:17;44.50;;;22.00;;
62435;SDS011;48480;50.252;18.848;2023-11-19T01:32:01;36.70;;;19.70;;
62435;SDS011;48480;50.252;18.848;2023-11-19T01:34:45;34.80;;;18.10;;
62435;SDS011;48480;50.252;18.848;2023-11-19T01:37:28;30.60;;;16.10;;
62435;SDS011;48480;50.252;18.848;2023-11-19T01:40:12;31.60;;;17.20;;
62435;SDS011;48480;50.252;18.848;2023-11-19T01:42:56;31.10;;;17.70;;
62435;SDS011;48480;50.252;18.848;2023-11-19T01:45:41;28.90;;;16.90;;
62435;SDS011;48480;50.252;18.848;2023-11-19T01:48:24;30.90;;;16.80;;
62435;SDS011;48480;50.252;18.848;2023-11-19T01:51:08;31.20;;;17.70;;
62435;SDS011;48480;50.252;18.848;2023-11-19T01:53:53;31.60;;;18.30;;
62435;SDS011;48480;50.252;18.848;2023-11-19T01:56:38;30.70;;;17.20;;
62435;SDS011;48480;50.252;18.848;2023-11-19T01:59:24;25.20;;;14.60;;
62435;SDS011;48480;50.252;18.848;2023-11-19T02:02:10;32.40;;;16.60;;
62435;SDS011;48480;50.252;18.848;2023-11-19T02:04:56;29.70;;;15.90;;
62435;SDS011;48480;50.252;18.848;2023-11-19T02:07:41;31.80;;;15.80;;
62435;SDS011;48480;50.252;18.848;2023-11-19T02:10:25;30.80;;;15.40;;
62435;SDS011;48480;50.252;18.848;2023-11-19T02:13:08;27.00;;;15.90;;
62435;SDS011;48480;50.252;18.848;2023-11-19T02:15:54;25.10;;;13.30;;
62435;SDS011;48480;50.252;18.848;2023-11-19T02:18:38;26.30;;;14.20;;
62435;SDS011;48480;50.252;18.848;2023-11-19T02:21:23;31.90;;;18.20;;
62435;SDS011;48480;50.252;18.848;2023-11-19T02:24:08;27.60;;;16.30;;
62435;SDS011;48480;50.252;18.848;2023-11-19T02:26:58;26.60;;;14.60;;
62435;SDS011;48480;50.252;18.848;2023-11-19T02:29:49;29.90;;;15.80;;
62435;SDS011;48480;50.252;18.848;2023-11-19T02:32:34;33.20;;;17.70;;
62435;SDS011;48480;50.252;18.848;2023-11-19T02:35:19;34.80;;;17.30;;
62435;SDS011;48480;50.252;18.848;2023-11-19T02:38:05;30.10;;;16.90;;
62435;SDS011;48480;50.252;18.848;2023-11-19T02:40:50;29.60;;;15.20;;
62435;SDS011;48480;50.252;18.848;2023-11-19T02:43:35;30.90;;;17.30;;
62435;SDS011;48480;50.252;18.848;2023-11-19T02:46:20;28.50;;;15.20;;
62435;SDS011;48480;50.252;18.848;2023-11-19T02:49:04;29.00;;;14.70;;
62435;SDS011;48480;50.252;18.848;2023-11-19T02:51:47;29.60;;;15.90;;
62435;SDS011;48480;50.252;18.848;2023-11-19T02:54:32;25.90;;;14.70;;
62435;SDS011;48480;50.252;18.848;2023-11-19T02:57:18;25.60;;;13.30;;
62435;SDS011;48480;50.252;18.848;2023-11-19T03:00:05;29.20;;;15.50;;
62435;SDS011;48480;50.252;18.848;2023-11-19T03:03:03;29.40;;;16.80;;
62435;SDS011;48480;50.252;18.848;2023-11-19T03:06:06;32.20;;;17.70;;
62435;SDS011;48480;50.252;18.848;2023-11-19T03:08:51;27.40;;;15.30;;
62435;SDS011;48480;50.252;18.848;2023-11-19T03:11:35;25.30;;;15.20;;
62435;SDS011;48480;50.252;18.848;2023-11-19T03:14:20;28.70;;;15.90;;
62435;SDS011;48480;50.252;18.848;2023-11-19T03:17:04;28.90;;;15.80;;
62435;SDS011;48480;50.252;18.848;2023-11-19T03:19:49;25.90;;;14.20;;
62435;SDS011;48480;50.252;18.848;2023-11-19T03:22:33;23.20;;;12.30;;
62435;SDS011;48480;50.252;18.848;2023-11-19T03:25:20;22.70;;;13.40;;
62435;SDS011;48480;50.252;18.848;2023-11-19T03:28:04;23.70;;;13.50;;
62435;SDS011;48480;50.252;18.848;2023-11-19T03:30:48;29.30;;;16.70;;
62435;SDS011;48480;50.252;18.848;2023-11-19T03:33:32;24.90;;;14.80;;
62435;SDS011;48480;50.252;18.848;2023-11-19T03:36:16;26.80;;;16.60;;
62435;SDS011;48480;50.252;18.848;2023-11-19T03:39:01;30.00;;;17.50;;
62435;SDS011;48480;50.252;18.848;2023-11-19T03:41:46;28.90;;;16.20;;
62435;SDS011;48480;50.252;18.848;2023-11-19T03:44:31;24.60;;;13.60;;
62435;SDS011;48480;50.252;18.848;2023-11-19T03:47:14;28.80;;;15.10;;
62435;SDS011;48480;50.252;18.848;2023-11-19T03:49:59;26.00;;;15.40;;
62435;SDS011;48480;50.252;18.848;2023-11-19T03:52:43;26.80;;;15.80;;
62435;SDS011;48480;50.252;18.848;2023-11-19T03:55:27;23.90;;;14.80;;
62435;SDS011;48480;50.252;18.848;2023-11-19T03:58:12;27.10;;;14.90;;
62435;SDS011;48480;50.252;18.848;2023-11-19T04:00:56;30.20;;;16.30;;
62435;SDS011;48480;50.252;18.848;2023-11-19T04:03:40;24.90;;;15.00;;
62435;SDS011;48480;50.252;18.848;2023-11-19T04:06:25;28.60;;;17.20;;
62435;SDS011;48480;50.252;18.848;2023-11-19T04:09:09;23.10;;;12.80;;
62435;SDS011;48480;50.252;18.848;2023-11-19T04:11:53;26.60;;;14.20;;
62435;SDS011;48480;50.252;18.848;2023-11-19T04:14:37;24.80;;;14.80;;
62435;SDS011;48480;50.252;18.848;2023-11-19T04:17:21;24.40;;;14.30;;
62435;SDS011;48480;50.252;18.848;2023-11-19T04:20:06;22.50;;;14.00;;
62435;SDS011;48480;50.252;18.848;2023-11-19T04:22:54;29.80;;;16.90;;
62435;SDS011;48480;50.252;18.848;2023-11-19T04:25:38;25.30;;;15.40;;
62435;SDS011;48480;50.252;18.848;2023-11-19T04:28:22;29.20;;;15.70;;
62435;SDS011;48480;50.252;18.848;2023-11-19T04:31:07;26.50;;;15.10;;
62435;SDS011;48480;50.252;18.848;2023-11-19T04:33:52;20.60;;;11.50;;
62435;SDS011;48480;50.252;18.848;2023-11-19T04:36:38;25.50;;;15.40;;
62435;SDS011;48480;50.252;18.848;2023-11-19T04:39:22;22.70;;;13.00;;
62435;SDS011;48480;50.252;18.848;2023-11-19T04:42:06;24.30;;;15.40;;
62435;SDS011;48480;50.252;18.848;2023-11-19T04:44:50;24.90;;;15.50;;
62435;SDS011;48480;50.252;18.848;2023-11-19T04:47:34;30.00;;;16.50;;
62435;SDS011;48480;50.252;18.848;2023-11-19T04:50:18;29.80;;;16.90;;
62435;SDS011;48480;50.252;18.848;2023-11-19T04:53:02;29.80;;;17.20;;
62435;SDS011;48480;50.252;18.848;2023-11-19T04:55:46;27.60;;;16.40;;
62435;SDS011;48480;50.252;18.848;2023-11-19T04:58:31;33.60;;;18.70;;
62435;SDS011;48480;50.252;18.848;2023-11-19T05:01:15;33.10;;;19.40;;
62435;SDS011;48480;50.252;18.848;2023-11-19T05:04:02;31.90;;;18.80;;
62435;SDS011;48480;50.252;18.848;2023-11-19T05:06:46;29.20;;;16.30;;
62435;SDS011;48480;50.252;18.848;2023-11-19T05:09:30;30.70;;;17.40;;
62435;SDS011;48480;50.252;18.848;2023-11-19T05:12:15;23.40;;;14.30;;
62435;SDS011;48480;50.252;18.848;2023-11-19T05:14:59;25.60;;;15.30;;
62435;SDS011;48480;50.252;18.848;2023-11-19T05:17:44;24.20;;;14.60;;
62435;SDS011;48480;50.252;18.848;2023-11-19T05:20:29;26.10;;;12.80;;
62435;SDS011;48480;50.252;18.848;2023-11-19T05:23:13;26.60;;;14.70;;
62435;SDS011;48480;50.252;18.848;2023-11-19T05:25:57;20.90;;;13.20;;
62435;SDS011;48480;50.252;18.848;2023-11-19T05:28:42;20.70;;;12.80;;
62435;SDS011;48480;50.252;18.848;2023-11-19T05:31:26;24.90;;;15.30;;
62435;SDS011;48480;50.252;18.848;2023-11-19T05:34:10;22.50;;;13.10;;
62435;SDS011;48480;50.252;18.848;2023-11-19T05:36:55;25.80;;;13.90;;
62435;SDS011;48480;50.252;18.848;2023-11-19T05:39:39;22.20;;;14.00;;
62435;SDS011;48480;50.252;18.848;2023-11-19T05:42:23;18.30;;;11.80;;
62435;SDS011;48480;50.252;18.848;2023-11-19T05:45:08;23.80;;;13.60;;
62435;SDS011;48480;50.252;18.848;2023-11-19T05:47:55;26.40;;;15.60;;
62435;SDS011;48480;50.252;18.848;2023-11-19T05:50:39;24.80;;;15.90;;
62435;SDS011;48480;50.252;18.848;2023-11-19T05:53:24;28.30;;;16.10;;
62435;SDS011;48480;50.252;18.848;2023-11-19T05:56:08;24.30;;;14.70;;
62435;SDS011;48480;50.252;18.848;2023-11-19T05:58:53;28.30;;;16.30;;
62435;SDS011;48480;50.252;18.848;2023-11-19T06:01:37;26.30;;;16.40;;
62435;SDS011;48480;50.252;18.848;2023-11-19T06:04:21;30.80;;;17.90;;
62435;SDS011;48480;50.252;18.848;2023-11-19T06:07:05;30.10;;;18.60;;
62435;SDS011;48480;50.252;18.848;2023-11-19T06:09:49;33.30;;;19.90;;
62435;SDS011;48480;50.252;18.848;2023-11-19T06:12:33;31.90;;;17.70;;
62435;SDS011;48480;50.252;18.848;2023-11-19T06:15:21;27.90;;;17.40;;
62435;SDS011;48480;50.252;18.848;2023-11-19T06:18:05;32.90;;;18.60;;
62435;SDS011;48480;50.252;18.848;2023-11-19T06:20:49;28.80;;;17.70;;
62435;SDS011;48480;50.252;18.848;2023-11-19T06:23:33;29.00;;;16.60;;
62435;SDS011;48480;50.252;18.848;2023-11-19T06:26:17;28.70;;;15.80;;
62435;SDS011;48480;50.252;18.848;2023-11-19T06:29:01;29.40;;;18.00;;
62435;SDS011;48480;50.252;18.848;2023-11-19T06:31:46;30.50;;;18.20;;
62435;SDS011;48480;50.252;18.848;2023-11-19T06:34:32;31.80;;;19.70;;
62435;SDS011;48480;50.252;18.848;2023-11-19T06:37:16;35.80;;;21.20;;
62435;SDS011;48480;50.252;18.848;2023-11-19T06:40:00;31.20;;;17.60;;
62435;SDS011;48480;50.252;18.848;2023-11-19T06:42:45;31.70;;;19.30;;
62435;SDS011;48480;50.252;18.848;2023-11-19T06:45:29;35.70;;;21.30;;
62435;SDS011;48480;50.252;18.848;2023-11-19T06:48:13;26.10;;;15.00;;
62435;SDS011;48480;50.252;18.848;2023-11-19T06:50:57;34.50;;;20.30;;
62435;SDS011;48480;50.252;18.848;2023-11-19T06:53:44;28.40;;;16.20;;
62435;SDS011;48480;50.252;18.848;2023-11-19T06:56:29;29.80;;;17.00;;
62435;SDS011;48480;50.252;18.848;2023-11-19T06:59:13;32.10;;;18.70;;
62435;SDS011;48480;50.252;18.848;2023-11-19T07:01:57;28.60;;;18.00;;
62435;SDS011;48480;50.252;18.848;2023-11-19T07:04:43;34.10;;;21.60;;
62435;SDS011;48480;50.252;18.848;2023-11-19T07:07:27;33.80;;;20.70;;
62435;SDS011;48480;50.252;18.848;2023-11-19T07:10:12;31.30;;;20.00;;
62435;SDS011;48480;50.252;18.848;2023-11-19T07:12:56;33.50;;;19.00;;
62435;SDS011;48480;50.252;18.848;2023-11-19T07:15:41;33.30;;;19.30;;
62435;SDS011;48480;50.252;18.848;2023-11-19T07:18:25;33.50;;;19.60;;
62435;SDS011;48480;50.252;18.848;2023-11-19T07:21:09;19.50;;;10.70;;
62435;SDS011;48480;50.252;18.848;2023-11-19T07:23:57;30.20;;;17.40;;
62435;SDS011;48480;50.252;18.848;2023-11-19T07:26:42;28.90;;;18.40;;
62435;SDS011;48480;50.252;18.848;2023-11-19T07:29:28;27.80;;;18.00;;
62435;SDS011;48480;50.252;18.848;2023-11-19T07:32:12;30.70;;;19.10;;
62435;SDS011;48480;50.252;18.848;2023-11-19T07:34:57;34.60;;;20.60;;
62435;SDS011;48480;50.252;18.848;2023-11-19T07:37:42;33.80;;;19.70;;
62435;SDS011;48480;50.252;18.848;2023-11-19T07:40:26;30.20;;;19.40;;
62435;SDS011;48480;50.252;18.848;2023-11-19T07:43:10;33.90;;;19.00;;
62435;SDS011;48480;50.252;18.848;2023-11-19T07:45:54;30.90;;;18.40;;
62435;SDS011;48480;50.252;18.848;2023-11-19T07:48:39;30.20;;;16.50;;
62435;SDS011;48480;50.252;18.848;2023-11-19T07:51:23;30.20;;;17.30;;
62435;SDS011;48480;50.252;18.848;2023-11-19T07:54:07;28.40;;;16.90;;
62435;SDS011;48480;50.252;18.848;2023-11-19T07:56:52;27.00;;;16.20;;
62435;SDS011;48480;50.252;18.848;2023-11-19T07:59:36;26.10;;;15.90;;
62435;SDS011;48480;50.252;18.848;2023-11-19T08:02:20;30.00;;;17.40;;
62435;SDS011;48480;50.252;18.848;2023-11-19T08:05:04;34.00;;;21.40;;
62435;SDS011;48480;50.252;18.848;2023-11-19T08:07:48;26.10;;;15.80;;
62435;SDS011;48480;50.252;18.848;2023-11-19T08:10:32;29.30;;;19.00;;
62435;SDS011;48480;50.252;18.848;2023-11-19T08:13:19;30.20;;;19.80;;
62435;SDS011;48480;50.252;18.848;2023-11-19T08:16:03;31.90;;;17.70;;
62435;SDS011;48480;50.252;18.848;2023-11-19T08:18:48;30.10;;;17.70;;
62435;SDS011;48480;50.252;18.848;2023-11-19T08:21:31;32.20;;;19.10;;
62435;SDS011;48480;50.252;18.848;2023-11-19T08:24:16;27.60;;;17.60;;
62435;SDS011;48480;50.252;18.848;2023-11-19T08:27:00;28.90;;;17.20;;
62435;SDS011;48480;50.252;18.848;2023-11-19T08:29:44;29.80;;;17.20;;
62435;SDS011;48480;50.252;18.848;2023-11-19T08:32:29;21.70;;;14.50;;
62435;SDS011;48480;50.252;18.848;2023-11-19T08:35:13;26.90;;;15.90;;
62435;SDS011;48480;50.252;18.848;2023-11-19T08:37:57;30.10;;;16.20;;
62435;SDS011;48480;50.252;18.848;2023-11-19T08:40:42;29.40;;;18.20;;
62435;SDS011;48480;50.252;18.848;2023-11-19T08:43:26;29.40;;;18.10;;
62435;SDS011;48480;50.252;18.848;2023-11-19T08:46:11;27.70;;;17.30;;
62435;SDS011;48480;50.252;18.848;2023-11-19T08:48:55;30.30;;;17.20;;
62435;SDS011;48480;50.252;18.848;2023-11-19T08:51:40;25.10;;;16.90;;
62435;SDS011;48480;50.252;18.848;2023-11-19T08:54:25;25.80;;;16.40;;
62435;SDS011;48480;50.252;18.848;2023-11-19T08:57:09;28.60;;;16.90;;
62435;SDS011;48480;50.252;18.848;2023-11-19T08:59:53;28.70;;;17.10;;
62435;SDS011;48480;50.252;18.848;2023-11-19T09:02:37;24.80;;;16.10;;
62435;SDS011;48480;50.252;18.848;2023-11-19T09:05:21;27.30;;;17.30;;
62435;SDS011;48480;50.252;18.848;2023-11-19T09:08:05;25.60;;;15.00;;
62435;SDS011;48480;50.252;18.848;2023-11-19T09:10:50;24.60;;;16.20;;
62435;SDS011;48480;50.252;18.848;2023-11-19T09:13:35;30.80;;;19.40;;
62435;SDS011;48480;50.252;18.848;2023-11-19T09:16:19;32.30;;;19.40;;
62435;SDS011;48480;50.252;18.848;2023-11-19T09:19:03;32.10;;;19.60;;
62435;SDS011;48480;50.252;18.848;2023-11-19T09:21:48;34.50;;;20.10;;
62435;SDS011;48480;50.252;18.848;2023-11-19T09:24:33;34.20;;;20.40;;
62435;SDS011;48480;50.252;18.848;2023-11-19T09:27:16;33.30;;;19.80;;
62435;SDS011;48480;50.252;18.848;2023-11-19T09:30:01;31.90;;;20.10;;
62435;SDS011;48480;50.252;18.848;2023-11-19T09:32:45;38.20;;;21.00;;
62435;SDS011;48480;50.252;18.848;2023-11-19T09:35:29;30.40;;;17.00;;
62435;SDS011;48480;50.252;18.848;2023-11-19T09:38:13;26.00;;;15.30;;
62435;SDS011;48480;50.252;18.848;2023-11-19T09:40:58;24.00;;;15.70;;
62435;SDS011;48480;50.252;18.848;2023-11-19T09:43:46;38.50;;;21.50;;
62435;SDS011;48480;50.252;18.848;2023-11-19T09:46:31;27.40;;;17.90;;
62435;SDS011;48480;50.252;18.848;2023-11-19T09:49:27;26.50;;;17.60;;
62435;SDS011;48480;50.252;18.848;2023-11-19T09:52:12;27.10;;;16.20;;
62435;SDS011;48480;50.252;18.848;2023-11-19T09:54:57;28.60;;;17.50;;
62435;SDS011;48480;50.252;18.848;2023-11-19T09:57:42;28.50;;;17.00;;
62435;SDS011;48480;50.252;18.848;2023-11-19T10:00:27;28.00;;;17.00;;
62435;SDS011;48480;50.252;18.848;2023-11-19T10:03:11;31.50;;;19.00;;
62435;SDS011;48480;50.252;18.848;2023-11-19T10:05:57;30.70;;;17.20;;
62435;SDS011;48480;50.252;18.848;2023-11-19T10:08:42;29.00;;;16.40;;
62435;SDS011;48480;50.252;18.848;2023-11-19T10:11:27;27.20;;;14.70;;
62435;SDS011;48480;50.252;18.848;2023-11-19T10:14:24;25.50;;;16.40;;
62435;SDS011;48480;50.252;18.848;2023-11-19T10:17:08;29.30;;;16.80;;
62435;SDS011;48480;50.252;18.848;2023-11-19T10:28:45;24.40;;;12.90;;
62435;SDS011;48480;50.252;18.848;2023-11-19T10:31:30;19.70;;;11.70;;
62435;SDS011;48480;50.252;18.848;2023-11-19T10:34:25;18.00;;;11.60;;
62435;SDS011;48480;50.252;18.848;2023-11-19T10:37:26;14.30;;;8.60;;
62435;SDS011;48480;50.252;18.848;2023-11-19T10:40:11;13.50;;;7.80;;
62435;SDS011;48480;50.252;18.848;2023-11-19T10:43:01;13.70;;;9.00;;
62435;SDS011;48480;50.252;18.848;2023-11-19T10:45:46;14.80;;;9.00;;
62435;SDS011;48480;50.252;18.848;2023-11-19T10:48:30;19.90;;;11.20;;
62435;SDS011;48480;50.252;18.848;2023-11-19T10:51:17;18.30;;;10.00;;
62435;SDS011;48480;50.252;18.848;2023-11-19T10:54:07;18.00;;;9.90;;
62435;SDS011;48480;50.252;18.848;2023-11-19T10:56:59;19.60;;;11.30;;
62435;SDS011;48480;50.252;18.848;2023-11-19T10:59:44;20.00;;;11.50;;
62435;SDS011;48480;50.252;18.848;2023-11-19T11:02:29;23.70;;;13.70;;
62435;SDS011;48480;50.252;18.848;2023-11-19T11:05:18;23.10;;;13.20;;
62435;SDS011;48480;50.252;18.848;2023-11-19T11:08:06;22.00;;;12.00;;
62435;SDS011;48480;50.252;18.848;2023-11-19T11:13:38;21.10;;;12.50;;
62435;SDS011;48480;50.252;18.848;2023-11-19T11:16:26;25.40;;;13.30;;
62435;SDS011;48480;50.252;18.848;2023-11-19T11:19:11;19.60;;;11.60;;
62435;SDS011;48480;50.252;18.848;2023-11-19T11:21:56;20.60;;;13.10;;
62435;SDS011;48480;50.252;18.848;2023-11-19T11:34:36;25.30;;;13.90;;
62435;SDS011;48480;50.252;18.848;2023-11-19T11:37:26;23.60;;;13.80;;
62435;SDS011;48480;50.252;18.848;2023-11-19T11:40:15;24.80;;;14.30;;
62435;SDS011;48480;50.252;18.848;2023-11-19T11:43:02;24.80;;;14.30;;
62435;SDS011;48480;50.252;18.848;2023-11-19T11:45:46;26.50;;;15.40;;
62435;SDS011;48480;50.252;18.848;2023-11-19T11:48:31;23.80;;;14.00;;
62435;SDS011;48480;50.252;18.848;2023-11-19T11:51:15;26.70;;;15.30;;
62435;SDS011;48480;50.252;18.848;2023-11-19T11:53:59;27.40;;;15.70;;
62435;SDS011;48480;50.252;18.848;2023-11-19T11:57:00;29.70;;;16.00;;
62435;SDS011;48480;50.252;18.848;2023-11-19T11:59:50;28.70;;;16.20;;
62435;SDS011;48480;50.252;18.848;2023-11-19T12:02:34;34.60;;;18.30;;
62435;SDS011;48480;50.252;18.848;2023-11-19T12:05:18;29.00;;;17.00;;
62435;SDS011;48480;50.252;18.848;2023-11-19T12:08:03;28.50;;;17.20;;
62435;SDS011;48480;50.252;18.848;2023-11-19T12:10:51;30.70;;;18.60;;
62435;SDS011;48480;50.252;18.848;2023-11-19T12:13:46;31.50;;;18.50;;
62435;SDS011;48480;50.252;18.848;2023-11-19T12:16:36;35.50;;;21.00;;
62435;SDS011;48480;50.252;18.848;2023-11-19T12:19:21;29.30;;;16.40;;
62435;SDS011;48480;50.252;18.848;2023-11-19T12:22:10;23.10;;;12.60;;
62435;SDS011;48480;50.252;18.848;2023-11-19T12:24:55;23.10;;;13.50;;
62435;SDS011;48480;50.252;18.848;2023-11-19T12:27:40;23.90;;;13.70;;
62435;SDS011;48480;50.252;18.848;2023-11-19T12:30:26;31.60;;;18.70;;
62435;SDS011;48480;50.252;18.848;2023-11-19T12:33:10;29.80;;;15.30;;
62435;SDS011;48480;50.252;18.848;2023-11-19T12:35:55;28.00;;;14.50;;
62435;SDS011;48480;50.252;18.848;2023-11-19T12:38:40;26.60;;;15.90;;
62435;SDS011;48480;50.252;18.848;2023-11-19T12:41:25;24.50;;;14.70;;
62435;SDS011;48480;50.252;18.848;2023-11-19T12:44:10;27.70;;;14.80;;
62435;SDS011;48480;50.252;18.848;2023-11-19T12:47:05;26.90;;;15.60;;
62435;SDS011;48480;50.252;18.848;2023-11-19T12:49:57;23.30;;;12.50;;
62435;SDS011;48480;50.252;18.848;2023-11-19T12:52:41;23.50;;;13.40;;
62435;SDS011;48480;50.252;18.848;2023-11-19T12:55:29;27.50;;;14.50;;
62435;SDS011;48480;50.252;18.848;2023-11-19T12:58:32;29.70;;;17.20;;
62435;SDS011;48480;50.252;18.848;2023-11-19T13:01:18;19.00;;;11.40;;
62435;SDS011;48480;50.252;18.848;2023-11-19T13:04:17;16.80;;;10.20;;
62435;SDS011;48480;50.252;18.848;2023-11-19T13:07:03;17.40;;;10.60;;
62435;SDS011;48480;50.252;18.848;2023-11-19T13:09:48;17.40;;;10.50;;
62435;SDS011;48480;50.252;18.848;2023-11-19T13:12:32;18.10;;;11.60;;
62435;SDS011;48480;50.252;18.848;2023-11-19T13:15:24;18.30;;;11.60;;
62435;SDS011;48480;50.252;18.848;2023-11-19T13:18:08;20.80;;;11.40;;
62435;SDS011;48480;50.252;18.848;2023-11-19T13:20:53;15.40;;;9.10;;
62435;SDS011;48480;50.252;18.848;2023-11-19T13:23:41;19.90;;;13.00;;
62435;SDS011;48480;50.252;18.848;2023-11-19T13:26:25;18.20;;;11.80;;
62435;SDS011;48480;50.252;18.848;2023-11-19T13:29:10;23.60;;;14.00;;
62435;SDS011;48480;50.252;18.848;2023-11-19T13:31:54;18.70;;;12.00;;
62435;SDS011;48480;50.252;18.848;2023-11-19T13:34:38;25.30;;;14.80;;
62435;SDS011;48480;50.252;18.848;2023-11-19T13:37:22;23.90;;;14.20;;
62435;SDS011;48480;50.252;18.848;2023-11-19T13:40:08;25.70;;;15.80;;
62435;SDS011;48480;50.252;18.848;2023-11-19T13:42:57;27.70;;;15.10;;
62435;SDS011;48480;50.252;18.848;2023-11-19T13:45:42;22.30;;;14.10;;
62435;SDS011;48480;50.252;18.848;2023-11-19T13:48:26;25.70;;;16.40;;
62435;SDS011;48480;50.252;18.848;2023-11-19T13:51:12;30.20;;;16.60;;
62435;SDS011;48480;50.252;18.848;2023-11-19T13:53:56;25.50;;;15.60;;
62435;SDS011;48480;50.252;18.848;2023-11-19T13:56:40;26.30;;;14.30;;
62435;SDS011;48480;50.252;18.848;2023-11-19T13:59:24;16.10;;;9.90;;
62435;SDS011;48480;50.252;18.848;2023-11-19T14:02:09;20.50;;;12.10;;
62435;SDS011;48480;50.252;18.848;2023-11-19T14:04:53;16.80;;;9.90;;
62435;SDS011;48480;50.252;18.848;2023-11-19T14:07:39;21.60;;;13.70;;
62435;SDS011;48480;50.252;18.848;2023-11-19T14:10:24;17.20;;;10.40;;
62435;SDS011;48480;50.252;18.848;2023-11-19T14:13:08;17.00;;;10.20;;
62435;SDS011;48480;50.252;18.848;2023-11-19T14:15:51;13.40;;;8.40;;
62435;SDS011;48480;50.252;18.848;2023-11-19T14:18:36;11.00;;;6.90;;
62435;SDS011;48480;50.252;18.848;2023-11-19T14:21:20;11.70;;;6.50;;
62435;SDS011;48480;50.252;18.848;2023-11-19T14:24:04;13.60;;;8.30;;
62435;SDS011;48480;50.252;18.848;2023-11-19T14:26:49;13.00;;;7.30;;
62435;SDS011;48480;50.252;18.848;2023-11-19T14:29:35;9.50;;;6.30;;
62435;SDS011;48480;50.252;18.848;2023-11-19T14:32:20;10.00;;;6.60;;
62435;SDS011;48480;50.252;18.848;2023-11-19T14:35:04;8.40;;;5.50;;
62435;SDS011;48480;50.252;18.848;2023-11-19T14:37:48;12.50;;;8.10;;
62435;SDS011;48480;50.252;18.848;2023-11-19T14:40:32;10.30;;;6.60;;
62435;SDS011;48480;50.252;18.848;2023-11-19T14:43:16;11.30;;;6.70;;
62435;SDS011;48480;50.252;18.848;2023-11-19T14:46:00;10.20;;;6.30;;
62435;SDS011;48480;50.252;18.848;2023-11-19T14:48:47;8.00;;;5.10;;
62435;SDS011;48480;50.252;18.848;2023-11-19T14:51:31;9.90;;;5.20;;
62435;SDS011;48480;50.252;18.848;2023-11-19T14:54:15;10.10;;;6.60;;
62435;SDS011;48480;50.252;18.848;2023-11-19T14:56:59;6.80;;;4.20;;
62435;SDS011;48480;50.252;18.848;2023-11-19T14:59:44;10.70;;;6.80;;
62435;SDS011;48480;50.252;18.848;2023-11-19T15:02:28;8.10;;;5.40;;
62435;SDS011;48480;50.252;18.848;2023-11-19T15:05:11;8.60;;;5.30;;
62435;SDS011;48480;50.252;18.848;2023-11-19T15:07:56;11.70;;;7.10;;
62435;SDS011;48480;50.252;18.848;2023-11-19T15:10:41;12.60;;;6.40;;
62435;SDS011;48480;50.252;18.848;2023-11-19T15:13:25;9.20;;;5.00;;
62435;SDS011;48480;50.252;18.848;2023-11-19T15:16:09;7.90;;;5.10;;
62435;SDS011;48480;50.252;18.848;2023-11-19T15:18:58;7.40;;;5.40;;
62435;SDS011;48480;50.252;18.848;2023-11-19T15:21:47;11.30;;;7.50;;
62435;SDS011;48480;50.252;18.848;2023-11-19T15:24:31;10.60;;;6.20;;
62435;SDS011;48480;50.252;18.848;2023-11-19T15:27:16;7.40;;;4.00;;
62435;SDS011;48480;50.252;18.848;2023-11-19T15:30:01;8.60;;;5.40;;
62435;SDS011;48480;50.252;18.848;2023-11-19T15:32:46;11.40;;;6.90;;
62435;SDS011;48480;50.252;18.848;2023-11-19T15:35:30;18.40;;;8.90;;
62435;SDS011;48480;50.252;18.848;2023-11-19T15:38:14;10.40;;;5.90;;
62435;SDS011;48480;50.252;18.848;2023-11-19T15:40:59;9.50;;;6.10;;
62435;SDS011;48480;50.252;18.848;2023-11-19T15:43:42;17.70;;;8.40;;
62435;SDS011;48480;50.252;18.848;2023-11-19T15:46:26;17.20;;;8.00;;
62435;SDS011;48480;50.252;18.848;2023-11-19T15:49:10;14.70;;;8.60;;
62435;SDS011;48480;50.252;18.848;2023-11-19T15:51:55;13.70;;;7.00;;
62435;SDS011;48480;50.252;18.848;2023-11-19T15:54:39;14.70;;;6.90;;
62435;SDS011;48480;50.252;18.848;2023-11-19T15:57:24;16.70;;;9.00;;
62435;SDS011;48480;50.252;18.848;2023-11-19T16:00:10;13.10;;;7.10;;
62435;SDS011;48480;50.252;18.848;2023-11-19T16:02:55;13.60;;;8.40;;
62435;SDS011;48480;50.252;18.848;2023-11-19T16:05:39;11.30;;;7.40;;
62435;SDS011;48480;50.252;18.848;2023-11-19T16:08:24;13.70;;;8.40;;
62435;SDS011;48480;50.252;18.848;2023-11-19T16:11:09;13.20;;;7.40;;
62435;SDS011;48480;50.252;18.848;2023-11-19T16:13:53;12.10;;;6.90;;
62435;SDS011;48480;50.252;18.848;2023-11-19T16:16:38;10.30;;;6.60;;